createdAt,value
2019-03-29T00:00:32.090Z,8.50
2019-03-29T00:02:36.783Z,7.33
2019-03-29T00:04:41.343Z,7.40
2019-03-29T00:06:46.110Z,7.80
2019-03-29T00:08:50.435Z,7.50
2019-03-29T00:10:54.765Z,7.33
2019-03-29T00:12:59.134Z,6.53
2019-03-29T00:15:03.569Z,7.53
2019-03-29T00:17:07.903Z,7.27
2019-03-29T00:19:13.550Z,7.47
2019-03-29T00:21:18.355Z,7.70
2019-03-29T00:23:23.083Z,8.80
2019-03-29T00:25:27.660Z,9.17
2019-03-29T00:27:32.051Z,9.97
2019-03-29T00:29:36.439Z,10.07
2019-03-29T00:31:40.762Z,10.30
2019-03-29T00:33:45.752Z,10.23
2019-03-29T00:35:50.290Z,11.10
2019-03-29T00:37:55.790Z,10.10
2019-03-29T00:40:00.365Z,10.27
2019-03-29T00:42:04.810Z,12.27
2019-03-29T00:44:09.128Z,12.57
2019-03-29T00:46:14.400Z,10.87
2019-03-29T00:48:18.762Z,11.43
2019-03-29T00:50:23.611Z,11.87
2019-03-29T00:52:27.999Z,10.00
2019-03-29T00:54:32.315Z,9.93
2019-03-29T00:56:36.672Z,10.90
2019-03-29T00:58:41.019Z,10.80
2019-03-29T01:00:46.182Z,10.97
2019-03-29T01:02:50.596Z,10.30
2019-03-29T01:04:55.025Z,11.20
2019-03-29T01:06:59.599Z,11.43
2019-03-29T01:09:05.045Z,11.20
2019-03-29T01:11:09.907Z,10.70
2019-03-29T01:13:15.387Z,10.83
2019-03-29T01:15:19.738Z,9.17
2019-03-29T01:17:24.068Z,10.80
2019-03-29T01:19:29.207Z,10.67
2019-03-29T01:21:34.256Z,9.77
2019-03-29T01:23:38.659Z,12.10
2019-03-29T01:25:43.463Z,11.77
2019-03-29T01:27:47.849Z,11.07
2019-03-29T01:29:52.291Z,10.60
2019-03-29T01:31:57.560Z,10.40
2019-03-29T01:34:01.880Z,10.67
2019-03-29T01:36:06.211Z,9.77
2019-03-29T01:38:21.063Z,9.77
2019-03-29T01:40:16.967Z,11.03
2019-03-29T01:42:21.311Z,9.47
2019-03-29T01:44:25.622Z,9.13
2019-03-29T01:46:29.935Z,9.63
2019-03-29T01:48:34.262Z,10.93
2019-03-29T01:50:38.864Z,11.10
2019-03-29T01:52:43.759Z,11.10
2019-03-29T01:54:48.203Z,11.57
2019-03-29T01:56:52.519Z,12.67
2019-03-29T01:58:56.892Z,12.90
2019-03-29T02:01:01.307Z,12.13
2019-03-29T02:03:07.315Z,12.43
2019-03-29T02:05:12.052Z,13.87
2019-03-29T02:07:16.695Z,12.37
2019-03-29T02:09:21.172Z,12.53
2019-03-29T02:11:25.505Z,13.07
2019-03-29T02:13:29.845Z,12.10
2019-03-29T02:15:34.230Z,11.47
2019-03-29T02:17:38.769Z,12.73
2019-03-29T02:19:44.119Z,11.47
2019-03-29T02:21:48.447Z,8.57
2019-03-29T02:23:52.851Z,8.40
2019-03-29T02:25:57.270Z,9.63
2019-03-29T02:28:01.587Z,9.73
2019-03-29T02:30:07.855Z,10.83
2019-03-29T02:32:12.435Z,11.70
2019-03-29T02:34:17.363Z,11.80
2019-03-29T02:36:21.709Z,12.10
2019-03-29T02:38:26.420Z,12.63
2019-03-29T02:40:30.752Z,13.67
2019-03-29T02:42:35.265Z,14.73
2019-03-29T02:44:39.691Z,15.70
2019-03-29T02:46:44.819Z,14.47
2019-03-29T02:48:49.155Z,15.47
2019-03-29T02:50:53.674Z,15.60
2019-03-29T02:52:57.996Z,16.53
2019-03-29T02:55:02.391Z,15.07
2019-03-29T02:57:06.724Z,13.60
2019-03-29T02:59:11.122Z,13.17
2019-03-29T03:01:16.492Z,11.87
2019-03-29T03:03:20.872Z,11.47
2019-03-29T03:05:25.246Z,10.93
2019-03-29T03:07:29.616Z,11.63
2019-03-29T03:09:33.950Z,10.80
2019-03-29T03:11:38.429Z,11.10
2019-03-29T03:13:42.944Z,10.03
2019-03-29T03:15:47.770Z,10.93
2019-03-29T03:17:52.085Z,10.80
2019-03-29T03:19:56.412Z,10.10
2019-03-29T03:22:00.808Z,10.30
2019-03-29T03:24:05.320Z,11.00
2019-03-29T03:26:09.636Z,11.30
2019-03-29T03:28:14.669Z,12.13
2019-03-29T03:30:19.366Z,10.87
2019-03-29T03:32:23.740Z,11.13
2019-03-29T03:34:28.181Z,10.73
2019-03-29T03:36:32.511Z,11.13
2019-03-29T03:38:36.839Z,11.93
2019-03-29T03:40:41.530Z,11.13
2019-03-29T03:42:46.323Z,11.37
2019-03-29T03:44:50.652Z,11.90
2019-03-29T03:46:54.996Z,11.47
2019-03-29T03:48:59.379Z,12.10
2019-03-29T03:51:05.304Z,13.67
2019-03-29T03:53:10.162Z,12.57
2019-03-29T03:55:15.317Z,12.13
2019-03-29T03:57:20.259Z,12.33
2019-03-29T03:59:27.316Z,12.77
2019-03-29T04:01:31.644Z,11.90
2019-03-29T04:03:35.968Z,12.90
2019-03-29T04:05:40.325Z,13.70
2019-03-29T04:07:45.308Z,12.47
2019-03-29T04:09:50.793Z,12.13
2019-03-29T04:11:55.206Z,10.33
2019-03-29T04:13:59.537Z,12.07
2019-03-29T04:16:03.938Z,12.07
2019-03-29T04:18:08.300Z,12.00
2019-03-29T04:20:12.787Z,13.50
2019-03-29T04:22:17.796Z,12.57
2019-03-29T04:24:22.203Z,13.33
2019-03-29T04:26:26.532Z,13.97
2019-03-29T04:28:30.862Z,14.10
2019-03-29T04:30:35.197Z,13.43
2019-03-29T04:32:39.533Z,13.20
2019-03-29T04:34:44.584Z,13.27
2019-03-29T04:36:49.067Z,13.33
2019-03-29T04:38:53.479Z,11.80
2019-03-29T04:40:57.903Z,12.93
2019-03-29T04:43:02.236Z,14.10
2019-03-29T04:45:07.248Z,13.33
2019-03-29T04:47:11.577Z,13.37
2019-03-29T04:49:16.723Z,14.00
2019-03-29T04:51:21.187Z,13.27
2019-03-29T04:53:25.675Z,14.43
2019-03-29T04:55:30.183Z,14.77
2019-03-29T04:57:34.579Z,14.17
2019-03-29T04:59:38.900Z,14.77
2019-03-29T05:01:43.365Z,13.70
2019-03-29T05:03:48.015Z,13.57
2019-03-29T05:05:52.415Z,13.93
2019-03-29T05:07:56.755Z,11.73
2019-03-29T05:10:01.174Z,12.73
2019-03-29T05:12:05.575Z,13.23
2019-03-29T05:14:09.927Z,12.27
2019-03-29T05:16:14.433Z,12.70
2019-03-29T05:18:19.066Z,12.57
2019-03-29T05:20:23.471Z,13.77
2019-03-29T05:22:27.814Z,14.33
2019-03-29T05:24:32.142Z,14.17
2019-03-29T05:26:36.766Z,15.03
2019-03-29T05:28:41.084Z,14.50
2019-03-29T05:30:45.735Z,14.00
2019-03-29T05:32:50.156Z,14.27
2019-03-29T05:34:54.488Z,14.00
2019-03-29T05:36:58.809Z,15.70
2019-03-29T05:39:04.392Z,13.17
2019-03-29T05:41:08.714Z,15.90
2019-03-29T05:43:13.031Z,15.27
2019-03-29T05:45:18.264Z,14.37
2019-03-29T05:47:22.667Z,14.63
2019-03-29T05:49:26.991Z,13.37
2019-03-29T05:51:31.334Z,13.67
2019-03-29T05:53:35.779Z,12.67
2019-03-29T05:55:40.451Z,11.73
2019-03-29T05:57:45.285Z,12.20
2019-03-29T05:59:49.747Z,13.50
2019-03-29T06:01:54.070Z,13.07
2019-03-29T06:03:58.430Z,13.40
2019-03-29T06:06:02.777Z,13.60
2019-03-29T06:08:07.106Z,12.93
2019-03-29T06:10:12.052Z,12.93
2019-03-29T06:12:17.181Z,16.05
2019-03-29T06:14:21.511Z,12.50
2019-03-29T06:16:38.323Z,12.67
2019-03-29T06:18:31.910Z,13.32
2019-03-29T06:20:36.249Z,12.37
2019-03-29T06:22:40.632Z,13.00
2019-03-29T06:24:45.515Z,12.63
2019-03-29T06:26:50.032Z,12.23
2019-03-29T06:28:54.439Z,12.37
2019-03-29T06:30:58.935Z,12.57
2019-03-29T06:33:03.259Z,20.87
2019-03-29T06:35:08.176Z,17.47
2019-03-29T06:37:14.440Z,14.60
2019-03-29T06:39:21.395Z,15.80
2019-03-29T06:41:25.939Z,14.87
2019-03-29T06:43:30.287Z,13.47
2019-03-29T06:45:47.392Z,12.97
2019-03-29T06:47:40.767Z,12.80
2019-03-29T06:49:46.418Z,13.10
2019-03-29T06:51:50.787Z,12.97
2019-03-29T06:53:55.155Z,13.37
2019-03-29T06:55:59.627Z,14.03
2019-03-29T06:58:04.348Z,14.33
2019-03-29T07:00:09.276Z,13.93
2019-03-29T07:02:13.595Z,14.73
2019-03-29T07:04:18.774Z,14.40
2019-03-29T07:06:23.199Z,14.13
2019-03-29T07:08:27.521Z,25.67
2019-03-29T07:10:32.019Z,16.00
2019-03-29T07:12:36.527Z,15.73
2019-03-29T07:14:40.851Z,15.10
2019-03-29T07:16:46.208Z,15.53
2019-03-29T07:18:50.640Z,14.60
2019-03-29T07:20:54.969Z,14.20
2019-03-29T07:22:59.375Z,16.10
2019-03-29T07:25:03.911Z,14.17
2019-03-29T07:27:08.311Z,14.40
2019-03-29T07:29:12.641Z,15.93
2019-03-29T07:31:17.680Z,14.80
2019-03-29T07:33:21.992Z,16.00
2019-03-29T07:35:26.307Z,15.33
2019-03-29T07:37:30.783Z,15.27
2019-03-29T07:39:35.109Z,15.73
2019-03-29T07:41:39.427Z,15.03
2019-03-29T07:43:43.853Z,15.13
2019-03-29T07:45:48.921Z,14.87
2019-03-29T07:47:53.326Z,14.70
2019-03-29T07:49:57.659Z,15.03
2019-03-29T07:52:02.004Z,14.60
2019-03-29T07:54:06.363Z,13.20
2019-03-29T07:56:11.060Z,14.07
2019-03-29T07:58:15.607Z,14.47
2019-03-29T08:00:20.788Z,14.23
2019-03-29T08:02:25.611Z,14.53
2019-03-29T08:04:30.003Z,15.13
2019-03-29T08:06:34.329Z,14.30
2019-03-29T08:08:38.673Z,14.70
2019-03-29T08:10:43.008Z,16.07
2019-03-29T08:12:49.282Z,14.67
2019-03-29T08:14:54.211Z,14.67
2019-03-29T08:16:58.547Z,14.67
2019-03-29T08:19:02.951Z,14.57
2019-03-29T08:21:07.622Z,15.57
2019-03-29T08:23:11.954Z,15.03
2019-03-29T08:25:17.222Z,14.73
2019-03-29T08:27:21.620Z,14.43
2019-03-29T08:29:25.936Z,15.47
2019-03-29T08:31:30.291Z,14.17
2019-03-29T08:33:34.712Z,14.30
2019-03-29T08:35:39.195Z,14.70
2019-03-29T08:37:43.544Z,13.87
2019-03-29T08:39:48.582Z,14.63
2019-03-29T08:42:00.089Z,14.00
2019-03-29T08:44:04.334Z,14.03
2019-03-29T08:46:08.756Z,15.20
2019-03-29T08:48:13.087Z,14.10
2019-03-29T08:50:18.252Z,13.87
2019-03-29T08:52:22.587Z,14.77
2019-03-29T08:54:26.963Z,13.73
2019-03-29T08:56:31.657Z,13.37
2019-03-29T08:58:36.071Z,12.90
2019-03-29T09:00:40.467Z,13.27
2019-03-29T09:02:44.795Z,13.27
2019-03-29T09:04:50.876Z,13.27
2019-03-29T09:06:55.223Z,14.13
2019-03-29T09:08:59.829Z,13.53
2019-03-29T09:11:07.495Z,13.83
2019-03-29T09:13:10.555Z,12.03
2019-03-29T09:15:14.879Z,12.40
2019-03-29T09:17:20.346Z,12.67
2019-03-29T09:19:24.747Z,12.50
2019-03-29T09:21:29.075Z,12.07
2019-03-29T09:23:33.431Z,11.13
2019-03-29T09:25:40.427Z,11.90
2019-03-29T09:27:43.917Z,11.17
2019-03-29T09:29:49.259Z,11.50
2019-03-29T09:31:53.679Z,11.93
2019-03-29T09:33:58.748Z,11.57
2019-03-29T09:36:05.013Z,11.27
2019-03-29T09:38:09.488Z,11.50
2019-03-29T09:40:14.257Z,10.97
2019-03-29T09:42:29.138Z,11.10
2019-03-29T09:44:25.840Z,11.60
2019-03-29T09:46:30.177Z,10.90
2019-03-29T09:48:34.859Z,10.27
2019-03-29T09:50:39.255Z,11.13
2019-03-29T09:52:43.591Z,11.23
2019-03-29T09:54:49.379Z,10.73
2019-03-29T09:56:54.212Z,10.13
2019-03-29T09:58:58.635Z,9.60
2019-03-29T10:01:03.073Z,8.63
2019-03-29T10:03:07.475Z,8.60
2019-03-29T10:05:11.888Z,8.90
2019-03-29T10:07:16.612Z,9.20
2019-03-29T10:09:21.305Z,8.50
2019-03-29T10:11:25.716Z,8.47
2019-03-29T10:13:30.134Z,8.13
2019-03-29T10:15:34.540Z,7.97
2019-03-29T10:17:38.884Z,8.00
2019-03-29T10:19:43.311Z,8.57
2019-03-29T10:21:48.521Z,8.67
2019-03-29T10:23:52.942Z,8.27
2019-03-29T10:25:58.772Z,8.13
2019-03-29T10:28:03.452Z,8.23
2019-03-29T10:30:08.627Z,7.53
2019-03-29T10:32:12.963Z,7.47
2019-03-29T10:34:18.059Z,7.13
2019-03-29T10:36:22.535Z,6.70
2019-03-29T10:38:26.966Z,6.47
2019-03-29T10:40:31.370Z,5.97
2019-03-29T10:42:35.703Z,6.20
2019-03-29T10:44:40.047Z,6.67
2019-03-29T10:46:44.366Z,5.70
2019-03-29T10:48:49.903Z,4.57
2019-03-29T10:50:54.328Z,4.70
2019-03-29T10:52:58.912Z,4.40
2019-03-29T10:55:03.371Z,3.97
2019-03-29T10:57:08.069Z,4.23
2019-03-29T10:59:26.311Z,3.43
2019-03-29T11:01:19.728Z,3.50
2019-03-29T11:03:24.138Z,3.93
2019-03-29T11:05:28.457Z,3.77
2019-03-29T11:07:32.779Z,3.97
2019-03-29T11:09:37.337Z,3.70
2019-03-29T11:11:41.751Z,3.07
2019-03-29T11:13:46.071Z,3.23
2019-03-29T11:15:51.323Z,3.90
2019-03-29T11:17:55.731Z,4.10
2019-03-29T11:20:00.051Z,3.53
2019-03-29T11:22:04.686Z,4.10
2019-03-29T11:24:09.543Z,3.00
2019-03-29T11:26:14.184Z,4.30
2019-03-29T11:28:19.868Z,4.43
2019-03-29T11:30:24.282Z,3.17
2019-03-29T11:32:28.591Z,3.40
2019-03-29T11:34:32.999Z,3.70
2019-03-29T11:36:37.374Z,3.93
2019-03-29T11:38:41.708Z,3.50
2019-03-29T11:40:46.146Z,3.43
2019-03-29T11:42:51.935Z,3.50
2019-03-29T11:44:56.263Z,3.53
2019-03-29T11:47:00.612Z,3.70
2019-03-29T11:49:05.099Z,3.33
2019-03-29T11:51:19.120Z,3.40
2019-03-29T11:53:15.984Z,3.93
2019-03-29T11:55:21.536Z,3.73
2019-03-29T11:57:26.344Z,3.87
2019-03-29T11:59:30.776Z,3.43
2019-03-29T12:01:35.180Z,3.63
2019-03-29T12:03:39.508Z,3.80
2019-03-29T12:05:43.855Z,3.47
2019-03-29T12:07:49.055Z,4.13
2019-03-29T12:09:53.488Z,3.80
2019-03-29T12:11:57.830Z,3.77
2019-03-29T12:14:04.834Z,3.30
2019-03-29T12:16:08.433Z,3.57
2019-03-29T12:18:12.939Z,4.00
2019-03-29T12:20:17.863Z,4.23
2019-03-29T12:22:22.391Z,4.00
2019-03-29T12:24:26.718Z,4.50
2019-03-29T12:26:31.035Z,4.17
2019-03-29T12:28:35.375Z,4.27
2019-03-29T12:30:40.294Z,3.70
2019-03-29T12:32:44.687Z,3.87
2019-03-29T12:34:49.789Z,3.90
2019-03-29T12:36:54.131Z,4.13
2019-03-29T12:38:58.620Z,4.57
2019-03-29T12:41:03.683Z,4.30
2019-03-29T12:43:08.198Z,4.83
2019-03-29T12:45:12.995Z,4.60
2019-03-29T12:47:17.504Z,4.70
2019-03-29T12:49:22.707Z,3.70
2019-03-29T12:51:27.048Z,3.73
2019-03-29T12:53:31.363Z,3.80
2019-03-29T12:55:35.716Z,4.47
2019-03-29T12:57:40.327Z,4.00
2019-03-29T12:59:45.147Z,4.03
2019-03-29T13:01:50.651Z,3.77
2019-03-29T13:03:54.976Z,4.40
2019-03-29T13:05:59.332Z,4.33
2019-03-29T13:08:03.778Z,4.10
2019-03-29T13:10:09.400Z,3.63
2019-03-29T13:12:13.778Z,4.00
2019-03-29T13:14:19.159Z,3.70
2019-03-29T13:16:23.761Z,4.20
2019-03-29T13:18:28.145Z,3.50
2019-03-29T13:20:32.565Z,4.20
2019-03-29T13:22:37.039Z,3.77
2019-03-29T13:24:41.376Z,3.70
2019-03-29T13:26:45.877Z,4.03
2019-03-29T13:28:51.219Z,4.33
2019-03-29T13:30:55.627Z,4.10
2019-03-29T13:33:00.182Z,3.47
2019-03-29T13:35:06.606Z,3.90
2019-03-29T13:37:11.150Z,3.93
2019-03-29T13:39:15.580Z,4.00
2019-03-29T13:41:21.636Z,4.20
2019-03-29T13:43:26.129Z,4.00
2019-03-29T13:45:30.660Z,4.13
2019-03-29T13:47:35.487Z,3.40
2019-03-29T13:49:39.894Z,3.77
2019-03-29T13:51:44.267Z,3.50
2019-03-29T13:53:49.116Z,3.70
2019-03-29T13:55:53.740Z,3.20
2019-03-29T13:57:58.331Z,3.97
2019-03-29T14:00:02.824Z,3.60
2019-03-29T14:02:07.132Z,3.70
2019-03-29T14:04:11.553Z,3.80
2019-03-29T14:06:15.883Z,3.20
2019-03-29T14:08:21.255Z,3.10
2019-03-29T14:10:25.751Z,3.20
2019-03-29T14:12:31.867Z,3.50
2019-03-29T14:14:38.380Z,4.00
2019-03-29T14:16:42.849Z,3.50
2019-03-29T14:18:47.171Z,3.33
2019-03-29T14:20:52.340Z,3.30
2019-03-29T14:22:56.761Z,3.77
2019-03-29T14:25:01.194Z,3.20
2019-03-29T14:27:05.595Z,3.00
2019-03-29T14:29:10.222Z,3.37
2019-03-29T14:31:14.603Z,3.60
2019-03-29T14:33:20.654Z,3.97
2019-03-29T14:35:25.211Z,3.90
2019-03-29T14:37:29.552Z,3.73
2019-03-29T14:39:33.890Z,3.93
2019-03-29T14:41:38.256Z,3.70
2019-03-29T14:43:42.575Z,3.57
2019-03-29T14:45:46.887Z,3.53
2019-03-29T14:47:52.755Z,3.40
2019-03-29T14:49:57.074Z,3.50
2019-03-29T14:52:01.499Z,3.37
2019-03-29T14:54:06.023Z,3.20
2019-03-29T14:56:10.352Z,3.30
2019-03-29T14:58:14.827Z,3.60
2019-03-29T15:00:35.688Z,3.17
2019-03-29T15:02:40.116Z,3.50
2019-03-29T15:04:44.472Z,2.80
2019-03-29T15:06:49.267Z,3.17
2019-03-29T15:08:54.114Z,3.43
2019-03-29T15:10:58.506Z,3.67
2019-03-29T15:13:03.048Z,3.53
2019-03-29T15:15:08.023Z,3.93
2019-03-29T15:17:12.371Z,3.30
2019-03-29T15:19:16.711Z,3.70
2019-03-29T15:21:22.551Z,3.10
2019-03-29T15:23:26.940Z,3.20
2019-03-29T15:25:31.559Z,3.57
2019-03-29T15:27:35.947Z,3.80
2019-03-29T15:29:40.274Z,3.83
2019-03-29T15:31:44.599Z,4.43
2019-03-29T15:33:49.411Z,4.10
2019-03-29T15:35:53.963Z,3.60
2019-03-29T15:37:58.311Z,2.97
2019-03-29T15:40:02.699Z,3.57
2019-03-29T15:42:07.008Z,3.20
2019-03-29T15:44:11.348Z,3.10
2019-03-29T15:46:15.675Z,3.00
2019-03-29T15:48:20.766Z,3.60
2019-03-29T15:50:25.219Z,3.40
2019-03-29T15:52:29.538Z,3.60
2019-03-29T15:54:33.856Z,3.70
2019-03-29T15:56:38.192Z,3.90
2019-03-29T15:58:42.557Z,3.43
2019-03-29T16:00:47.271Z,3.40
2019-03-29T16:02:54.110Z,3.00
2019-03-29T16:04:58.498Z,3.83
2019-03-29T16:07:02.903Z,3.30
2019-03-29T16:09:07.650Z,2.80
2019-03-29T16:11:17.205Z,3.00
2019-03-29T16:13:18.084Z,2.83
2019-03-29T16:15:35.022Z,3.33
2019-03-29T16:17:29.936Z,2.93
2019-03-29T16:19:34.263Z,2.93
2019-03-29T16:21:38.611Z,3.57
2019-03-29T16:23:43.019Z,8.30
2019-03-29T16:25:47.345Z,3.53
2019-03-29T16:27:52.328Z,3.30
2019-03-29T16:29:56.733Z,3.00
2019-03-29T16:32:01.163Z,2.93
2019-03-29T16:34:05.508Z,2.60
2019-03-29T16:36:09.943Z,2.90
2019-03-29T16:38:14.288Z,3.07
2019-03-29T16:40:18.731Z,3.00
2019-03-29T16:42:23.426Z,2.50
2019-03-29T16:44:27.847Z,2.40
2019-03-29T16:46:32.228Z,2.70
2019-03-29T16:48:36.623Z,2.40
2019-03-29T16:50:40.947Z,2.60
2019-03-29T16:52:45.299Z,2.60
2019-03-29T16:54:49.935Z,2.47
2019-03-29T16:56:54.620Z,2.80
2019-03-29T16:58:59.047Z,2.17
2019-03-29T17:01:03.596Z,2.10
2019-03-29T17:03:08.060Z,2.40
2019-03-29T17:05:13.167Z,2.50
2019-03-29T17:07:17.844Z,2.53
2019-03-29T17:09:22.691Z,2.60
2019-03-29T17:11:27.819Z,2.20
2019-03-29T17:13:32.235Z,2.07
2019-03-29T17:15:36.599Z,2.47
2019-03-29T17:17:40.957Z,2.20
2019-03-29T17:19:45.352Z,2.70
2019-03-29T17:21:49.856Z,2.37
2019-03-29T17:23:54.845Z,2.40
2019-03-29T17:25:59.192Z,2.60
2019-03-29T17:28:03.574Z,2.53
2019-03-29T17:30:09.787Z,2.30
2019-03-29T17:32:14.175Z,2.40
2019-03-29T17:34:18.580Z,2.37
2019-03-29T17:36:23.900Z,2.17
2019-03-29T17:38:28.202Z,2.53
2019-03-29T17:40:32.614Z,2.17
2019-03-29T17:42:37.034Z,2.30
2019-03-29T17:44:41.421Z,2.43
2019-03-29T17:46:45.750Z,2.20
2019-03-29T17:48:50.359Z,2.63
2019-03-29T17:50:55.124Z,2.97
2019-03-29T17:52:59.439Z,2.60
2019-03-29T17:55:04.172Z,38.07
2019-03-29T17:57:08.885Z,4.20
2019-03-29T17:59:13.414Z,3.20
2019-03-29T18:01:17.799Z,3.23
2019-03-29T18:03:23.158Z,2.83
2019-03-29T18:05:27.595Z,2.40
2019-03-29T18:07:31.963Z,2.70
2019-03-29T18:09:36.283Z,2.30
2019-03-29T18:11:40.979Z,2.43
2019-03-29T18:13:45.319Z,2.40
2019-03-29T18:15:49.746Z,2.23
2019-03-29T18:17:54.881Z,3.10
2019-03-29T18:19:59.595Z,3.27
2019-03-29T18:22:04.199Z,2.70
2019-03-29T18:24:08.591Z,2.63
2019-03-29T18:26:12.927Z,2.87
2019-03-29T18:28:17.241Z,2.60
2019-03-29T18:30:36.211Z,2.60
2019-03-29T18:32:40.703Z,2.50
2019-03-29T18:34:45.108Z,2.57
2019-03-29T18:36:51.225Z,2.63
2019-03-29T18:38:56.143Z,2.53
2019-03-29T18:41:00.515Z,2.80
2019-03-29T18:43:07.595Z,2.97
2019-03-29T18:45:12.075Z,2.40
2019-03-29T18:47:16.539Z,2.60
2019-03-29T18:49:21.639Z,2.60
2019-03-29T18:51:26.124Z,3.10
2019-03-29T18:53:30.447Z,3.47
2019-03-29T18:55:34.868Z,2.90
2019-03-29T18:57:39.204Z,2.90
2019-03-29T18:59:43.531Z,2.33
2019-03-29T19:01:47.967Z,2.20
2019-03-29T19:03:52.988Z,2.50
2019-03-29T19:05:57.447Z,2.70
2019-03-29T19:08:02.123Z,3.23
2019-03-29T19:10:07.440Z,3.97
2019-03-29T19:12:11.796Z,3.90
2019-03-29T19:14:16.176Z,2.97
2019-03-29T19:16:20.707Z,2.83
2019-03-29T19:18:26.483Z,2.80
2019-03-29T19:20:30.919Z,2.53
2019-03-29T19:22:35.497Z,2.60
2019-03-29T19:24:40.045Z,2.60
2019-03-29T19:26:44.915Z,2.67
2019-03-29T19:28:49.328Z,3.33
2019-03-29T19:30:54.163Z,3.50
2019-03-29T19:32:58.573Z,3.43
2019-03-29T19:35:03.085Z,4.07
2019-03-29T19:37:07.671Z,3.80
2019-03-29T19:39:12.290Z,4.10
2019-03-29T19:41:16.702Z,4.03
2019-03-29T19:43:21.913Z,4.53
2019-03-29T19:45:26.669Z,4.30
2019-03-29T19:47:31.450Z,3.90
2019-03-29T19:49:35.880Z,4.03
2019-03-29T19:51:40.353Z,4.00
2019-03-29T19:53:44.802Z,3.80
2019-03-29T19:55:49.575Z,4.60
2019-03-29T19:57:55.303Z,4.20
2019-03-29T20:00:00.037Z,4.63
2019-03-29T20:02:04.968Z,4.63
2019-03-29T20:04:10.008Z,4.40
2019-03-29T20:06:14.695Z,4.40
2019-03-29T20:08:19.083Z,3.83
2019-03-29T20:10:24.007Z,4.10
2019-03-29T20:12:28.633Z,4.03
2019-03-29T20:14:33.015Z,4.50
2019-03-29T20:16:37.327Z,3.90
2019-03-29T20:18:41.747Z,4.33
2019-03-29T20:20:46.219Z,4.10
2019-03-29T20:22:50.539Z,4.37
2019-03-29T20:24:55.266Z,3.90
2019-03-29T20:26:59.683Z,4.03
2019-03-29T20:29:04.374Z,3.97
2019-03-29T20:31:08.797Z,4.10
2019-03-29T20:33:13.484Z,4.50
2019-03-29T20:35:18.040Z,3.77
2019-03-29T20:37:24.264Z,4.40
2019-03-29T20:39:28.716Z,4.10
2019-03-29T20:41:33.039Z,4.33
2019-03-29T20:43:37.403Z,4.50
2019-03-29T20:45:41.715Z,4.80
2019-03-29T20:47:46.127Z,4.47
2019-03-29T20:49:50.493Z,4.50
2019-03-29T20:51:55.567Z,4.80
2019-03-29T20:54:00.054Z,5.10
2019-03-29T20:56:06.577Z,4.70
2019-03-29T20:58:10.639Z,4.53
2019-03-29T21:00:16.155Z,4.67
2019-03-29T21:02:20.571Z,5.10
2019-03-29T21:04:25.499Z,4.47
2019-03-29T21:06:31.421Z,4.33
2019-03-29T21:08:35.918Z,4.57
2019-03-29T21:10:54.493Z,4.80
2019-03-29T21:12:46.409Z,6.07
2019-03-29T21:14:50.775Z,5.97
2019-03-29T21:16:55.867Z,5.30
2019-03-29T21:19:00.207Z,3.73
2019-03-29T21:21:04.640Z,3.70
2019-03-29T21:23:09.244Z,3.87
2019-03-29T21:25:13.655Z,9.17
2019-03-29T21:27:18.281Z,10.53
2019-03-29T21:29:23.107Z,5.00
2019-03-29T21:31:27.847Z,4.63
2019-03-29T21:33:32.271Z,3.83
2019-03-29T21:35:36.586Z,4.00
2019-03-29T21:37:40.921Z,4.37
2019-03-29T21:39:45.243Z,4.37
2019-03-29T21:41:49.563Z,3.90
2019-03-29T21:43:54.330Z,4.27
2019-03-29T21:45:58.847Z,4.60
2019-03-29T21:48:26.890Z,4.87
2019-03-29T21:50:10.112Z,4.53
2019-03-29T21:52:14.442Z,4.83
2019-03-29T21:54:18.755Z,5.23
2019-03-29T21:56:23.656Z,5.20
2019-03-29T21:58:28.202Z,4.20
2019-03-29T22:00:32.568Z,4.00
2019-03-29T22:02:36.863Z,5.40
2019-03-29T22:04:41.246Z,6.60
2019-03-29T22:06:45.803Z,4.40
2019-03-29T22:08:50.148Z,4.43
2019-03-29T22:10:55.323Z,4.23
2019-03-29T22:12:59.643Z,4.33
2019-03-29T22:15:04.142Z,4.70
2019-03-29T22:17:08.503Z,4.47
2019-03-29T22:19:12.835Z,4.87
2019-03-29T22:21:17.160Z,5.00
2019-03-29T22:23:21.487Z,4.77
2019-03-29T22:25:26.525Z,4.47
2019-03-29T22:27:30.923Z,4.37
2019-03-29T22:29:35.317Z,4.83
2019-03-29T22:31:39.734Z,5.27
2019-03-29T22:33:44.134Z,4.87
2019-03-29T22:35:48.475Z,23.10
2019-03-29T22:37:53.632Z,18.00
2019-03-29T22:39:58.286Z,17.10
2019-03-29T22:42:02.647Z,5.50
2019-03-29T22:44:07.148Z,4.20
2019-03-29T22:46:11.450Z,3.53
2019-03-29T22:48:15.793Z,4.40
2019-03-29T22:50:20.274Z,3.57
2019-03-29T22:52:25.467Z,4.23
2019-03-29T22:54:29.885Z,4.10
2019-03-29T22:56:34.207Z,4.00
2019-03-29T22:58:38.536Z,3.77
2019-03-29T23:00:46.727Z,4.20
2019-03-29T23:02:51.200Z,4.30
2019-03-29T23:04:56.667Z,4.30
2019-03-29T23:07:01.318Z,4.60
2019-03-29T23:09:07.789Z,4.60
2019-03-29T23:11:12.149Z,4.50
2019-03-29T23:13:16.512Z,4.27
2019-03-29T23:15:20.900Z,4.17
2019-03-29T23:17:25.949Z,4.37
2019-03-29T23:19:30.275Z,4.47
2019-03-29T23:21:34.607Z,4.23
2019-03-29T23:23:38.959Z,4.83
2019-03-29T23:25:43.336Z,4.37
2019-03-29T23:27:47.732Z,4.70
2019-03-29T23:29:52.076Z,4.43
2019-03-29T23:31:56.948Z,4.53
2019-03-29T23:34:01.270Z,4.47
2019-03-29T23:36:05.739Z,4.30
2019-03-29T23:38:10.087Z,4.70
2019-03-29T23:40:14.496Z,4.63
2019-03-29T23:42:18.823Z,4.40
2019-03-29T23:44:23.540Z,4.20
2019-03-29T23:46:28.144Z,4.60
2019-03-29T23:48:32.540Z,4.80
2019-03-29T23:50:36.971Z,4.13
2019-03-29T23:52:41.475Z,3.97
2019-03-29T23:54:45.806Z,3.97
2019-03-29T23:56:50.272Z,4.27
2019-03-29T23:58:55.711Z,4.30
